Terminal Aerodrome Forecast
Issued by NWS

Home | Current Version | Previous Version | Text Only | Print | Product List | Glossary On
Versions: 1 2 3 4 5 6 7 8 9 10 11 12 13 14 15 16 17 18 19 20 21
000
FTUS46 KMTR 161500 AAA
TAFSNS
TAF AMD
KSNS 161527Z 1615/1712 26005KT 6SM BR OVC006
     FM161700 26006KT P6SM SCT015
     FM161900 27012KT P6SM SKC
     FM170400 27008KT P6SM SCT015
     FM170600 27006KT P6SM BKN015=

USA.gov is the U.S. government's official web portal to all federal, state and local government web resources and services.